Time;durP1;ratioP1;P1;durP2;ratioP2;P2;SDS_P1;SDS_P2;PMS_P1;PMS_P2;Temp;Humidity;BMP_temperature;BMP_pressure;BME280_temperature;BME280_humidity;BME280_pressure;Samples;Min_cycle;Max_cycle;Signal;HPM_P1;HPM_P2
2022/11/25 00:01:37;;;;;;;;;0.00;0.00;;;;;;;;5096953;27;45804;-63
2022/11/25 00:04:02;;;;;;;;;2.00;2.00;;;;;;;;5096677;27;45380;-63
2022/11/25 00:06:27;;;;;;;;;0.75;0.00;;;;;;;;5097299;27;45390;-63
2022/11/25 00:08:56;;;;;;;;;0.50;0.50;;;;;;;;5097022;27;46028;-63
2022/11/25 00:11:21;;;;;;;;;0.00;0.00;;;;;;;;5097049;27;45340;-63
2022/11/25 00:13:47;;;;;;;;;1.75;0.00;;;;;;;;5097142;27;45410;-63
2022/11/25 00:16:13;;;;;;;;;1.00;0.00;;;;;;;;5097433;27;45453;-63
2022/11/25 00:18:39;;;;;;;;;0.00;0.00;;;;;;;;5099824;27;46902;-63
2022/11/25 00:21:08;;;;;;;;;0.00;0.00;;;;;;;;5098879;27;45436;-63
2022/11/25 00:23:34;;;;;;;;;2.00;0.00;;;;;;;;5100665;27;45371;-63
2022/11/25 00:26:09;;;;;;;;;2.00;0.75;;;;;;;;5100577;27;45356;-63
2022/11/25 00:28:34;;;;;;;;;1.00;1.00;;;;;;;;5100054;27;48294;-63
2022/11/25 00:31:04;;;;;;;;;1.50;0.75;;;;;;;;5100498;27;45504;-63
2022/11/25 00:33:29;;;;;;;;;0.00;0.00;;;;;;;;5100175;27;45459;-63
2022/11/25 00:35:54;;;;;;;;;0.75;0.00;;;;;;;;5100619;27;45449;-63
2022/11/25 00:38:19;;;;;;;;;1.00;1.00;;;;;;;;5115122;27;45808;-63
2022/11/25 00:44:34;;;;;;;;;0.00;0.00;;;;;;;;5119570;27;45492;-63
2022/11/25 00:46:14;;;;;;;;;0.00;0.00;;;;;;;;5120884;27;45326;-63
2022/11/25 00:48:39;;;;;;;;;0.00;0.00;;;;;;;;5104606;27;45529;-64
2022/11/25 00:51:04;;;;;;;;;0.00;0.00;;;;;;;;5099519;27;45363;-63
2022/11/25 00:53:30;;;;;;;;;1.00;0.50;;;;;;;;5100147;27;45266;-63
2022/11/25 00:56:11;;;;;;;;;3.00;1.50;;;;;;;;5099832;27;45849;-63
2022/11/25 00:58:37;;;;;;;;;2.00;0.25;;;;;;;;5099235;27;45850;-63
2022/11/25 01:01:02;;;;;;;;;2.00;1.00;;;;;;;;5099935;27;45386;-63
2022/11/25 01:03:27;;;;;;;;;0.75;0.75;;;;;;;;5119132;27;45288;-63
2022/11/25 01:05:53;;;;;;;;;1.00;0.00;;;;;;;;5120637;27;45198;-63
2022/11/25 01:08:18;;;;;;;;;2.25;1.25;;;;;;;;5120127;27;45384;-63
2022/11/25 01:10:43;;;;;;;;;2.00;1.00;;;;;;;;5120234;27;45516;-63
2022/11/25 01:13:08;;;;;;;;;1.00;0.75;;;;;;;;5120375;27;45421;-63
2022/11/25 01:15:35;;;;;;;;;3.00;1.00;;;;;;;;5120460;27;45388;-63
2022/11/25 01:18:00;;;;;;;;;0.00;0.00;;;;;;;;5118114;27;46351;-63
2022/11/25 01:20:26;;;;;;;;;1.00;1.00;;;;;;;;5099161;27;45762;-63
2022/11/25 01:22:52;;;;;;;;;2.00;1.00;;;;;;;;5099129;27;45291;-63
2022/11/25 01:25:17;;;;;;;;;1.00;1.00;;;;;;;;5099687;27;45296;-63
2022/11/25 01:27:42;;;;;;;;;0.00;0.00;;;;;;;;5099168;27;45555;-63
2022/11/25 01:30:08;;;;;;;;;1.00;1.00;;;;;;;;5099577;27;45403;-63
2022/11/25 01:32:33;;;;;;;;;0.50;0.25;;;;;;;;5099389;27;45297;-63
2022/11/25 01:34:58;;;;;;;;;1.00;1.00;;;;;;;;5099139;27;45384;-63
2022/11/25 01:37:23;;;;;;;;;1.00;0.50;;;;;;;;5099297;27;45663;-63
2022/11/25 01:39:48;;;;;;;;;0.00;0.00;;;;;;;;5099209;27;45434;-63
2022/11/25 01:42:14;;;;;;;;;1.00;1.00;;;;;;;;5099502;27;45279;-63
2022/11/25 01:44:41;;;;;;;;;1.00;1.00;;;;;;;;5099468;27;45181;-64
2022/11/25 01:47:09;;;;;;;;;2.75;1.00;;;;;;;;5098841;27;47189;-64
2022/11/25 01:49:46;;;;;;;;;0.00;0.00;;;;;;;;5098845;27;45323;-64
2022/11/25 01:52:12;;;;;;;;;1.00;0.75;;;;;;;;5098446;27;45769;-64
2022/11/25 01:54:40;;;;;;;;;2.50;0.00;;;;;;;;5099272;27;45424;-63
2022/11/25 01:57:09;;;;;;;;;1.00;1.00;;;;;;;;5098910;27;46391;-63
2022/11/25 01:59:38;;;;;;;;;2.75;0.00;;;;;;;;5098923;27;45307;-64
2022/11/25 02:02:03;;;;;;;;;0.00;0.00;;;;;;;;5097432;27;45268;-64
2022/11/25 02:04:31;;;;;;;;;1.75;1.00;;;;;;;;5098694;27;45354;-64
2022/11/25 02:07:00;;;;;;;;;0.75;0.75;;;;;;;;5098498;27;46672;-64
2022/11/25 02:09:26;;;;;;;;;1.25;1.00;;;;;;;;5098084;27;45314;-64
2022/11/25 02:11:51;;;;;;;;;0.50;0.00;;;;;;;;5097980;27;45456;-64
2022/11/25 02:14:18;;;;;;;;;2.25;1.00;;;;;;;;5098743;27;45472;-64
2022/11/25 02:16:43;;;;;;;;;0.25;0.25;;;;;;;;5098190;27;45521;-64
2022/11/25 02:19:16;;;;;;;;;1.00;1.00;;;;;;;;5097983;27;45588;-64
2022/11/25 02:21:49;;;;;;;;;2.00;1.00;;;;;;;;5098663;27;45370;-63
2022/11/25 02:24:20;;;;;;;;;0.25;0.25;;;;;;;;5098964;27;45564;-64
2022/11/25 02:26:47;;;;;;;;;2.00;1.00;;;;;;;;5098228;27;47565;-64
2022/11/25 02:29:12;;;;;;;;;1.00;1.00;;;;;;;;5098275;27;45435;-64
2022/11/25 02:31:37;;;;;;;;;1.00;1.00;;;;;;;;5098506;27;45307;-64
2022/11/25 02:34:03;;;;;;;;;2.00;1.00;;;;;;;;5098543;27;45676;-64
2022/11/25 02:36:28;;;;;;;;;0.00;0.00;;;;;;;;5097957;27;46911;-64
2022/11/25 02:39:00;;;;;;;;;2.25;0.00;;;;;;;;5098327;27;45729;-63
2022/11/25 02:41:28;;;;;;;;;2.50;0.00;;;;;;;;5097390;27;45359;-63
2022/11/25 02:43:53;;;;;;;;;1.25;0.00;;;;;;;;5098485;27;45391;-64
2022/11/25 02:46:20;;;;;;;;;1.25;0.00;;;;;;;;5098033;27;46522;-64
2022/11/25 02:48:45;;;;;;;;;0.00;0.00;;;;;;;;5115268;27;45857;-63
2022/11/25 02:51:12;;;;;;;;;1.00;1.00;;;;;;;;5118869;27;45454;-63
2022/11/25 02:53:37;;;;;;;;;3.00;0.00;;;;;;;;5118944;27;45488;-64
2022/11/25 02:56:03;;;;;;;;;0.50;0.50;;;;;;;;5114817;27;46105;-64
2022/11/25 02:58:28;;;;;;;;;1.25;1.00;;;;;;;;5097912;27;45471;-64
2022/11/25 03:00:53;;;;;;;;;1.25;0.00;;;;;;;;5097962;27;45335;-64
2022/11/25 03:03:18;;;;;;;;;2.00;0.00;;;;;;;;5098167;27;45384;-63
2022/11/25 03:05:43;;;;;;;;;1.50;0.00;;;;;;;;5097751;27;45499;-64
2022/11/25 03:08:09;;;;;;;;;3.00;0.00;;;;;;;;5097961;27;45373;-63
2022/11/25 03:10:34;;;;;;;;;0.00;0.00;;;;;;;;5098052;27;45522;-64
2022/11/25 03:13:00;;;;;;;;;1.50;0.00;;;;;;;;5097507;27;45397;-64
2022/11/25 03:15:25;;;;;;;;;0.00;0.00;;;;;;;;5097832;27;45900;-64
2022/11/25 03:17:51;;;;;;;;;0.00;0.00;;;;;;;;5118089;27;45393;-63
2022/11/25 03:20:16;;;;;;;;;0.25;0.00;;;;;;;;5118376;27;45421;-63
2022/11/25 03:22:42;;;;;;;;;1.00;0.00;;;;;;;;5118605;27;45490;-64
2022/11/25 03:25:08;;;;;;;;;0.00;0.00;;;;;;;;5118027;27;46205;-64
2022/11/25 03:27:33;;;;;;;;;0.25;0.00;;;;;;;;5118394;27;45649;-64
2022/11/25 03:29:58;;;;;;;;;1.00;0.00;;;;;;;;5118181;27;45467;-63
2022/11/25 03:32:24;;;;;;;;;0.00;0.00;;;;;;;;5117289;27;45319;-64
2022/11/25 03:34:49;;;;;;;;;0.75;0.00;;;;;;;;5117880;27;45345;-64
2022/11/25 03:37:14;;;;;;;;;0.00;0.00;;;;;;;;5102229;27;45370;-64
2022/11/25 03:39:39;;;;;;;;;1.00;0.00;;;;;;;;5097785;27;45788;-64
2022/11/25 03:42:04;;;;;;;;;1.25;0.00;;;;;;;;5097652;27;45306;-64
2022/11/25 03:44:30;;;;;;;;;1.00;0.00;;;;;;;;5097323;27;46461;-64
2022/11/25 03:46:55;;;;;;;;;2.00;1.00;;;;;;;;5097349;27;45383;-63
2022/11/25 03:49:20;;;;;;;;;0.00;0.00;;;;;;;;5097291;27;45755;-63
2022/11/25 03:51:46;;;;;;;;;0.00;0.00;;;;;;;;5097936;27;45318;-63
2022/11/25 03:54:11;;;;;;;;;0.00;0.00;;;;;;;;5103973;27;46500;-63
2022/11/25 03:56:36;;;;;;;;;0.00;0.00;;;;;;;;5121511;27;45356;-63
2022/11/25 03:59:01;;;;;;;;;1.00;1.00;;;;;;;;5121457;27;45395;-63
2022/11/25 04:01:26;;;;;;;;;1.00;0.00;;;;;;;;5121657;27;45332;-63
2022/11/25 04:03:52;;;;;;;;;3.00;1.00;;;;;;;;5121319;27;45490;-63
2022/11/25 04:06:19;;;;;;;;;2.75;1.00;;;;;;;;5121189;27;45619;-63
2022/11/25 04:08:44;;;;;;;;;3.25;1.00;;;;;;;;5121553;27;45415;-64
2022/11/25 04:11:09;;;;;;;;;2.00;1.00;;;;;;;;5116698;27;45230;-63
2022/11/25 04:13:34;;;;;;;;;1.00;1.00;;;;;;;;5100469;27;45644;-64
2022/11/25 04:16:00;;;;;;;;;0.50;0.50;;;;;;;;5100792;27;45385;-64
2022/11/25 04:18:25;;;;;;;;;0.75;0.50;;;;;;;;5100563;27;45384;-63
2022/11/25 04:20:50;;;;;;;;;2.00;0.75;;;;;;;;5100675;27;45414;-63
2022/11/25 04:23:15;;;;;;;;;3.50;1.00;;;;;;;;5100119;27;45521;-64
2022/11/25 04:25:41;;;;;;;;;3.75;0.75;;;;;;;;5100278;27;45383;-64
2022/11/25 04:28:06;;;;;;;;;2.00;0.00;;;;;;;;5100102;27;45348;-64
2022/11/25 04:30:31;;;;;;;;;1.00;0.00;;;;;;;;5102992;27;45831;-63
2022/11/25 04:32:57;;;;;;;;;0.00;0.00;;;;;;;;5121062;27;46444;-64
2022/11/25 04:35:22;;;;;;;;;1.25;1.00;;;;;;;;5120705;27;45376;-63
2022/11/25 04:37:47;;;;;;;;;0.75;0.75;;;;;;;;5120982;27;45289;-64
2022/11/25 04:40:13;;;;;;;;;2.50;1.00;;;;;;;;5121103;27;45223;-64
2022/11/25 04:42:38;;;;;;;;;0.00;0.00;;;;;;;;5117972;27;46061;-63
2022/11/25 04:45:14;;;;;;;;;3.00;1.00;;;;;;;;5119182;27;45481;-63
2022/11/25 04:47:39;;;;;;;;;2.00;0.75;;;;;;;;5103566;27;45406;-63
2022/11/25 04:50:07;;;;;;;;;12.00;10.50;;;;;;;;5103785;27;45463;-63
2022/11/25 04:52:32;;;;;;;;;1.50;1.50;;;;;;;;5122087;27;45577;-63
2022/11/25 04:54:58;;;;;;;;;1.00;1.00;;;;;;;;5121280;27;45406;-63
2022/11/25 04:57:23;;;;;;;;;1.00;1.00;;;;;;;;5120654;27;45686;-63
2022/11/25 04:59:48;;;;;;;;;2.50;1.00;;;;;;;;5120767;27;45500;-63
2022/11/25 05:02:23;;;;;;;;;3.00;1.00;;;;;;;;5135203;27;47285;-63
2022/11/25 05:04:49;;;;;;;;;0.50;0.50;;;;;;;;5141251;27;45430;-63
2022/11/25 05:07:16;;;;;;;;;1.00;1.00;;;;;;;;5140935;27;45183;-63
2022/11/25 05:09:42;;;;;;;;;1.00;1.00;;;;;;;;5137956;27;45407;-63
2022/11/25 05:12:09;;;;;;;;;1.00;1.00;;;;;;;;5120217;27;46573;-63
2022/11/25 05:14:34;;;;;;;;;1.00;1.00;;;;;;;;5120213;27;45407;-63
2022/11/25 05:17:03;;;;;;;;;4.00;1.00;;;;;;;;5119463;27;45346;-63
2022/11/25 05:19:29;;;;;;;;;1.00;1.00;;;;;;;;5120133;27;45294;-63
2022/11/25 05:21:54;;;;;;;;;5.75;4.75;;;;;;;;5119723;27;45520;-63
2022/11/25 05:24:19;;;;;;;;;1.50;1.50;;;;;;;;5120187;27;45449;-63
2022/11/25 05:26:44;;;;;;;;;3.25;3.00;;;;;;;;5120639;27;45555;-63
2022/11/25 05:29:10;;;;;;;;;1.00;1.00;;;;;;;;5119104;27;45498;-63
2022/11/25 05:31:35;;;;;;;;;1.00;1.00;;;;;;;;5119702;27;47387;-63
2022/11/25 05:34:01;;;;;;;;;3.25;2.00;;;;;;;;5100717;27;45457;-63
2022/11/25 05:36:26;;;;;;;;;5.25;3.00;;;;;;;;5099222;27;45431;-63
2022/11/25 05:38:51;;;;;;;;;2.25;2.25;;;;;;;;5099458;27;45193;-63
2022/11/25 05:41:17;;;;;;;;;1.00;1.00;;;;;;;;5099234;27;45428;-63
2022/11/25 05:43:42;;;;;;;;;1.00;1.00;;;;;;;;5103000;27;45303;-63
2022/11/25 05:46:07;;;;;;;;;1.00;1.00;;;;;;;;5119749;27;45620;-63
2022/11/25 05:48:33;;;;;;;;;2.00;2.00;;;;;;;;5113110;27;45729;-64
2022/11/25 05:50:59;;;;;;;;;2.00;2.00;;;;;;;;5121801;27;46618;-63
2022/11/25 05:53:25;;;;;;;;;3.50;2.75;;;;;;;;5129682;27;45349;-63
2022/11/25 05:55:57;;;;;;;;;7.00;4.75;;;;;;;;5136427;27;45451;-63
2022/11/25 05:58:23;;;;;;;;;5.00;3.00;;;;;;;;5140378;27;45357;-62
2022/11/25 06:00:48;;;;;;;;;6.50;4.00;;;;;;;;5136440;27;46577;-63
2022/11/25 06:03:13;;;;;;;;;2.50;2.00;;;;;;;;5119321;27;45241;-62
2022/11/25 06:05:40;;;;;;;;;3.00;1.75;;;;;;;;5118234;27;45284;-62
2022/11/25 06:08:05;;;;;;;;;2.75;2.75;;;;;;;;5115971;27;45611;-62
2022/11/25 06:10:30;;;;;;;;;3.50;3.50;;;;;;;;5119152;27;47288;-62
2022/11/25 06:12:55;;;;;;;;;5.25;5.25;;;;;;;;5118387;27;45358;-62
2022/11/25 06:15:21;;;;;;;;;4.00;4.00;;;;;;;;5118097;27;45433;-62
2022/11/25 06:17:46;;;;;;;;;19.67;15.00;;;;;;;;5118142;27;45366;-63
2022/11/25 06:20:11;;;;;;;;;8.00;5.00;;;;;;;;5118855;27;45616;-63
2022/11/25 06:22:36;;;;;;;;;6.00;5.00;;;;;;;;5118783;27;45543;-63
2022/11/25 06:25:01;;;;;;;;;5.00;4.00;;;;;;;;5118073;27;45339;-63
2022/11/25 06:27:27;;;;;;;;;6.25;3.75;;;;;;;;5118901;27;45527;-63
2022/11/25 06:29:52;;;;;;;;;3.75;3.00;;;;;;;;5101416;27;47053;-63
2022/11/25 06:32:17;;;;;;;;;6.25;3.50;;;;;;;;5106807;27;46691;-63
2022/11/25 06:34:43;;;;;;;;;25.00;24.67;;;;;;;;5105119;27;45385;-63
2022/11/25 06:37:08;;;;;;;;;13.00;9.00;;;;;;;;5114508;27;45445;-63
2022/11/25 06:39:33;;;;;;;;;6.50;5.00;;;;;;;;5118741;27;46413;-63
2022/11/25 06:41:59;;;;;;;;;12.00;5.75;;;;;;;;5117975;27;45411;-63
2022/11/25 06:44:24;;;;;;;;;3.00;3.00;;;;;;;;5118714;27;45428;-63
2022/11/25 06:46:49;;;;;;;;;60.25;49.25;;;;;;;;5117635;27;45400;-63
2022/11/25 06:49:14;;;;;;;;;12.33;7.67;;;;;;;;5118701;27;45351;-64
2022/11/25 06:51:39;;;;;;;;;7.25;7.00;;;;;;;;5108963;27;45391;-63
2022/11/25 06:54:06;;;;;;;;;6.00;4.50;;;;;;;;5118842;27;45252;-63
2022/11/25 06:56:31;;;;;;;;;7.75;5.75;;;;;;;;5118945;27;45890;-63
2022/11/25 06:58:56;;;;;;;;;6.25;5.50;;;;;;;;5116515;27;46297;-63
2022/11/25 07:01:21;;;;;;;;;7.25;5.00;;;;;;;;5115479;27;45349;-63
2022/11/25 07:03:48;;;;;;;;;5.25;4.75;;;;;;;;5112768;27;45537;-63
2022/11/25 07:06:16;;;;;;;;;7.50;5.75;;;;;;;;5098295;27;45332;-63
2022/11/25 07:08:42;;;;;;;;;8.75;7.00;;;;;;;;5097258;27;46912;-63
2022/11/25 07:11:11;;;;;;;;;6.00;4.25;;;;;;;;5114940;27;45300;-64
2022/11/25 07:13:36;;;;;;;;;6.50;5.00;;;;;;;;5118528;27;45387;-63
2022/11/25 07:16:03;;;;;;;;;6.75;4.25;;;;;;;;5118535;27;45434;-63
2022/11/25 07:18:29;;;;;;;;;6.50;5.00;;;;;;;;5107670;27;46541;-63
2022/11/25 07:20:54;;;;;;;;;13.00;11.00;;;;;;;;5113586;27;45603;-63
2022/11/25 07:23:19;;;;;;;;;7.00;5.50;;;;;;;;5098143;27;45417;-63
2022/11/25 07:25:44;;;;;;;;;9.25;8.00;;;;;;;;5102458;27;45468;-63
2022/11/25 07:28:10;;;;;;;;;5.50;4.00;;;;;;;;5124930;27;45513;-64
2022/11/25 07:30:35;;;;;;;;;8.25;7.50;;;;;;;;5123794;27;45536;-64
2022/11/25 07:33:00;;;;;;;;;6.00;5.75;;;;;;;;5121345;27;45484;-63
2022/11/25 07:35:25;;;;;;;;;6.00;3.00;;;;;;;;5125173;27;45386;-64
2022/11/25 07:37:51;;;;;;;;;4.25;4.25;;;;;;;;5124867;27;46213;-63
2022/11/25 07:40:17;;;;;;;;;10.50;5.50;;;;;;;;5124821;27;45387;-63
2022/11/25 07:42:42;;;;;;;;;9.25;6.50;;;;;;;;5125082;27;45336;-63
2022/11/25 07:45:07;;;;;;;;;6.50;5.00;;;;;;;;5125204;27;45460;-63
2022/11/25 07:47:33;;;;;;;;;8.00;5.00;;;;;;;;5124700;27;45614;-63
2022/11/25 07:49:59;;;;;;;;;5.25;5.25;;;;;;;;5124729;27;45424;-63
2022/11/25 07:52:24;;;;;;;;;5.75;4.75;;;;;;;;5124819;27;45523;-63
2022/11/25 07:54:49;;;;;;;;;8.50;6.00;;;;;;;;5125221;27;45368;-63
2022/11/25 07:57:14;;;;;;;;;11.50;10.00;;;;;;;;5124595;27;46540;-63
2022/11/25 07:59:40;;;;;;;;;13.67;13.00;;;;;;;;5123772;27;45425;-64
2022/11/25 08:02:07;;;;;;;;;7.00;4.75;;;;;;;;5124452;27;45290;-64
2022/11/25 08:04:33;;;;;;;;;6.75;6.75;;;;;;;;5124970;27;45324;-64
2022/11/25 08:06:58;;;;;;;;;4.50;3.25;;;;;;;;5124391;27;46088;-63
2022/11/25 08:09:24;;;;;;;;;7.75;4.00;;;;;;;;5124341;27;45326;-64
2022/11/25 08:11:49;;;;;;;;;7.75;5.50;;;;;;;;5123212;27;45480;-63
2022/11/25 08:14:15;;;;;;;;;10.25;5.75;;;;;;;;5124708;27;45404;-63
2022/11/25 08:16:41;;;;;;;;;12.25;6.50;;;;;;;;5124034;27;45375;-63
2022/11/25 08:19:07;;;;;;;;;12.00;10.75;;;;;;;;5124352;27;45353;-63
2022/11/25 08:21:32;;;;;;;;;16.67;15.67;;;;;;;;5124446;27;45480;-63
2022/11/25 08:23:58;;;;;;;;;7.75;7.50;;;;;;;;5124050;27;45492;-63
2022/11/25 08:26:25;;;;;;;;;12.25;8.00;;;;;;;;5124302;27;46281;-63
2022/11/25 08:28:50;;;;;;;;;9.25;6.75;;;;;;;;5123798;27;45268;-64
2022/11/25 08:31:18;;;;;;;;;6.50;6.00;;;;;;;;5124439;27;45275;-63
2022/11/25 08:33:43;;;;;;;;;11.25;8.00;;;;;;;;5124365;27;45338;-63
2022/11/25 08:36:08;;;;;;;;;10.00;7.00;;;;;;;;5123925;27;45886;-64
2022/11/25 08:38:34;;;;;;;;;11.50;8.25;;;;;;;;5120659;27;45462;-63
2022/11/25 08:40:59;;;;;;;;;6.75;6.75;;;;;;;;5120807;27;45409;-64
2022/11/25 08:43:25;;;;;;;;;9.00;7.50;;;;;;;;5121160;27;45322;-64
2022/11/25 08:45:50;;;;;;;;;8.00;7.75;;;;;;;;5120650;27;45369;-63
2022/11/25 08:48:16;;;;;;;;;7.75;6.50;;;;;;;;5120521;27;45431;-63
2022/11/25 08:50:46;;;;;;;;;8.25;5.25;;;;;;;;5120593;27;45350;-63
2022/11/25 08:53:11;;;;;;;;;9.25;6.50;;;;;;;;5120664;27;45415;-64
2022/11/25 08:55:37;;;;;;;;;7.25;6.00;;;;;;;;5120482;27;45418;-64
2022/11/25 08:58:03;;;;;;;;;11.00;5.00;;;;;;;;5120507;27;45240;-64
2022/11/25 09:00:28;;;;;;;;;9.00;8.00;;;;;;;;5120338;27;45381;-63
2022/11/25 09:02:53;;;;;;;;;5.50;4.75;;;;;;;;5120898;27;45362;-63
2022/11/25 09:05:18;;;;;;;;;8.75;5.75;;;;;;;;5120078;27;46141;-63
2022/11/25 09:07:44;;;;;;;;;5.50;5.50;;;;;;;;5120153;27;45433;-64
2022/11/25 09:10:12;;;;;;;;;5.50;4.50;;;;;;;;5120232;27;45221;-64
2022/11/25 09:12:37;;;;;;;;;5.75;5.75;;;;;;;;5120225;27;45372;-63
2022/11/25 09:15:03;;;;;;;;;121.50;107.50;;;;;;;;5120057;27;45449;-63
2022/11/25 09:17:28;;;;;;;;;25.67;17.33;;;;;;;;5120051;27;45307;-63
2022/11/25 09:19:53;;;;;;;;;10.00;10.00;;;;;;;;5120146;27;45450;-63
2022/11/25 09:22:19;;;;;;;;;6.00;6.00;;;;;;;;5120465;27;45428;-64
2022/11/25 09:24:45;;;;;;;;;5.75;4.00;;;;;;;;5119641;27;46389;-63
2022/11/25 09:27:10;;;;;;;;;10.00;6.50;;;;;;;;5119868;27;45302;-63
2022/11/25 09:29:35;;;;;;;;;4.75;4.75;;;;;;;;5120059;27;45961;-63
2022/11/25 09:32:00;;;;;;;;;6.75;3.75;;;;;;;;5120261;27;45316;-63
2022/11/25 09:34:26;;;;;;;;;10.25;3.00;;;;;;;;5119832;27;46485;-63
2022/11/25 09:36:51;;;;;;;;;4.50;1.00;;;;;;;;5119896;27;45406;-64
2022/11/25 09:39:16;;;;;;;;;5.25;3.25;;;;;;;;5119602;27;45297;-64
2022/11/25 09:47:48;;;;;;;;;5.50;3.75;;;;;;;;5119439;27;45253;-63
2022/11/25 09:50:32;;;;;;;;;5.50;4.00;;;;;;;;5117864;27;45492;-63
2022/11/25 09:53:07;;;;;;;;;4.50;3.25;;;;;;;;5119854;27;45434;-63
2022/11/25 09:55:37;;;;;;;;;4.00;3.25;;;;;;;;5119220;27;46582;-63
2022/11/25 09:58:05;;;;;;;;;4.25;4.25;;;;;;;;5119526;27;45199;-63
2022/11/25 10:00:39;;;;;;;;;6.00;3.00;;;;;;;;5119525;27;45350;-63
2022/11/25 10:03:05;;;;;;;;;10.50;8.50;;;;;;;;5119437;27;45601;-63
2022/11/25 10:05:50;;;;;;;;;5.75;2.50;;;;;;;;5119393;27;45988;-63
2022/11/25 10:08:20;;;;;;;;;7.50;4.00;;;;;;;;5118567;27;45412;-63
2022/11/25 10:10:47;;;;;;;;;3.50;2.00;;;;;;;;5119046;27;45241;-63
2022/11/25 10:13:19;;;;;;;;;6.75;3.75;;;;;;;;5119212;27;45427;-63
2022/11/25 10:15:47;;;;;;;;;4.50;3.50;;;;;;;;5119161;27;45602;-63
2022/11/25 10:18:17;;;;;;;;;2.50;2.00;;;;;;;;5118925;27;45381;-63
2022/11/25 10:20:42;;;;;;;;;6.00;5.50;;;;;;;;5119322;27;45543;-63
2022/11/25 10:23:18;;;;;;;;;7.25;4.50;;;;;;;;5119562;27;45450;-63
2022/11/25 10:25:45;;;;;;;;;4.75;4.75;;;;;;;;5118644;27;46483;-63
2022/11/25 10:28:18;;;;;;;;;3.00;2.75;;;;;;;;5118961;27;45448;-63
2022/11/25 10:30:47;;;;;;;;;6.75;4.00;;;;;;;;5119009;27;45441;-63
2022/11/25 10:33:17;;;;;;;;;6.00;6.00;;;;;;;;5119214;27;45567;-63
2022/11/25 10:35:45;;;;;;;;;9.00;4.00;;;;;;;;5118889;27;45489;-63
2022/11/25 10:38:14;;;;;;;;;2.75;2.00;;;;;;;;5118695;27;45514;-63
2022/11/25 10:40:41;;;;;;;;;13.25;7.50;;;;;;;;5118662;27;45273;-63
2022/11/25 10:43:13;;;;;;;;;6.50;4.00;;;;;;;;5118728;27;45433;-63
2022/11/25 10:45:44;;;;;;;;;10.25;4.00;;;;;;;;5118643;27;47407;-63
2022/11/25 10:48:16;;;;;;;;;4.75;4.50;;;;;;;;5118608;27;45334;-63
2022/11/25 10:50:42;;;;;;;;;5.00;3.00;;;;;;;;5118638;27;45460;-63
2022/11/25 10:53:14;;;;;;;;;9.25;4.50;;;;;;;;5118881;27;45493;-63
2022/11/25 10:55:54;;;;;;;;;5.75;4.00;;;;;;;;5118250;27;46804;-63
2022/11/25 10:58:26;;;;;;;;;3.75;3.00;;;;;;;;5118577;27;45366;-63
2022/11/25 11:01:00;;;;;;;;;8.75;4.00;;;;;;;;5118140;27;45441;-63
2022/11/25 11:03:26;;;;;;;;;14.00;13.00;;;;;;;;5118860;27;45381;-63
2022/11/25 11:05:52;;;;;;;;;6.00;4.00;;;;;;;;5118154;27;46571;-63
2022/11/25 11:08:18;;;;;;;;;8.00;3.50;;;;;;;;5118125;27;45356;-63
2022/11/25 11:10:43;;;;;;;;;5.25;2.00;;;;;;;;5118625;27;45366;-61
2022/11/25 11:13:23;;;;;;;;;5.00;4.50;;;;;;;;5118279;27;45553;-61
2022/11/25 11:15:49;;;;;;;;;6.00;3.00;;;;;;;;5118029;27;46838;-61
2022/11/25 11:18:14;;;;;;;;;2.50;2.50;;;;;;;;5118236;27;45347;-61
2022/11/25 11:20:44;;;;;;;;;6.00;2.50;;;;;;;;5118290;27;45404;-61
2022/11/25 11:23:12;;;;;;;;;6.00;2.75;;;;;;;;5118672;27;45313;-62
2022/11/25 11:25:39;;;;;;;;;3.00;3.00;;;;;;;;5117973;27;46464;-61
2022/11/25 11:28:23;;;;;;;;;4.00;3.00;;;;;;;;5118196;27;45479;-63
2022/11/25 11:31:00;;;;;;;;;6.75;6.75;;;;;;;;5118273;27;45254;-63
2022/11/25 11:33:31;;;;;;;;;4.75;3.50;;;;;;;;5118205;27;45467;-63
2022/11/25 11:36:04;;;;;;;;;8.75;4.00;;;;;;;;5118129;27;45315;-63
2022/11/25 11:38:32;;;;;;;;;3.25;3.00;;;;;;;;5118149;27;45421;-63
2022/11/25 11:41:17;;;;;;;;;6.25;3.75;;;;;;;;5117985;27;45341;-63
2022/11/25 11:44:01;;;;;;;;;2.50;2.25;;;;;;;;5103485;27;45568;-63
2022/11/25 11:46:32;;;;;;;;;2.50;2.00;;;;;;;;5118093;27;46590;-63
2022/11/25 11:49:02;;;;;;;;;9.00;7.00;;;;;;;;5117951;27;45372;-63
2022/11/25 11:51:45;;;;;;;;;5.50;3.50;;;;;;;;5117983;27;45684;-63
2022/11/25 11:54:16;;;;;;;;;3.75;3.00;;;;;;;;5118139;27;45291;-63
2022/11/25 11:56:41;;;;;;;;;3.00;3.00;;;;;;;;5117756;27;46324;-63
2022/11/25 11:59:19;;;;;;;;;5.75;2.00;;;;;;;;5117670;27;45276;-63
2022/11/25 12:01:54;;;;;;;;;3.75;2.50;;;;;;;;5105466;27;45517;-63
2022/11/25 12:04:25;;;;;;;;;5.75;2.00;;;;;;;;5110864;27;45309;-63
2022/11/25 12:07:05;;;;;;;;;2.25;2.25;;;;;;;;5114866;27;45441;-63
2022/11/25 12:09:32;;;;;;;;;4.75;2.75;;;;;;;;5108627;27;45721;-63
2022/11/25 12:12:01;;;;;;;;;5.00;3.00;;;;;;;;5117487;27;45497;-62
2022/11/25 12:14:26;;;;;;;;;8.25;4.75;;;;;;;;5121223;27;45504;-63
2022/11/25 12:16:55;;;;;;;;;2.75;2.75;;;;;;;;5127458;27;46463;-63
2022/11/25 12:19:20;;;;;;;;;5.25;3.00;;;;;;;;5119029;27;45602;-63
2022/11/25 12:21:59;;;;;;;;;8.00;4.00;;;;;;;;5142066;27;45413;-63
2022/11/25 12:24:41;;;;;;;;;4.50;3.00;;;;;;;;5123882;27;45259;-63
2022/11/25 12:27:06;;;;;;;;;5.25;3.00;;;;;;;;5107949;27;46030;-62
2022/11/25 12:29:46;;;;;;;;;9.25;3.75;;;;;;;;5124613;27;45470;-61
2022/11/25 12:32:24;;;;;;;;;3.75;3.00;;;;;;;;5099779;27;45383;-62
2022/11/25 12:34:54;;;;;;;;;7.00;3.50;;;;;;;;5103524;27;45459;-62
2022/11/25 12:37:43;;;;;;;;;5.50;3.75;;;;;;;;5115954;27;46644;-61
2022/11/25 12:40:14;;;;;;;;;4.00;2.25;;;;;;;;5087717;27;45565;-62
2022/11/25 12:42:40;;;;;;;;;7.50;3.00;;;;;;;;5081883;27;47866;-62
2022/11/25 12:45:12;;;;;;;;;5.25;4.00;;;;;;;;5096729;27;45530;-62
2022/11/25 12:47:37;;;;;;;;;3.50;3.50;;;;;;;;5094959;27;46435;-63
2022/11/25 12:50:03;;;;;;;;;5.75;2.00;;;;;;;;5093986;27;45544;-62
2022/11/25 12:52:37;;;;;;;;;4.00;4.00;;;;;;;;5092217;27;45541;-62
2022/11/25 12:55:08;;;;;;;;;4.50;4.50;;;;;;;;5101938;27;45506;-62
2022/11/25 12:57:52;;;;;;;;;3.00;2.00;;;;;;;;5096671;27;45677;-61
2022/11/25 13:00:23;;;;;;;;;8.00;4.00;;;;;;;;5097026;27;45446;-61
2022/11/25 13:02:59;;;;;;;;;5.75;3.75;;;;;;;;5095700;27;45529;-61
2022/11/25 13:05:34;;;;;;;;;3.25;3.00;;;;;;;;5095656;27;45485;-62
2022/11/25 13:08:10;;;;;;;;;5.25;3.00;;;;;;;;5096593;27;46614;-61
2022/11/25 13:10:54;;;;;;;;;4.00;2.75;;;;;;;;5095219;27;45583;-61
2022/11/25 13:13:22;;;;;;;;;3.25;3.00;;;;;;;;5095900;27;45486;-61
2022/11/25 13:15:50;;;;;;;;;4.25;2.00;;;;;;;;5095770;27;45539;-62
2022/11/25 13:18:16;;;;;;;;;10.75;5.50;;;;;;;;5126355;27;46298;-62
2022/11/25 13:20:52;;;;;;;;;5.75;5.00;;;;;;;;5128635;27;45431;-62
2022/11/25 13:23:17;;;;;;;;;4.25;3.75;;;;;;;;5116392;27;46072;-62
2022/11/25 13:25:44;;;;;;;;;5.25;2.50;;;;;;;;5119621;27;45494;-62
2022/11/25 13:28:28;;;;;;;;;10.50;8.00;;;;;;;;5119184;27;46687;-62
2022/11/25 13:30:53;;;;;;;;;6.00;3.25;;;;;;;;5119403;27;45500;-62
2022/11/25 13:33:19;;;;;;;;;7.00;4.25;;;;;;;;5119506;27;45349;-62
2022/11/25 13:35:54;;;;;;;;;5.75;4.00;;;;;;;;5108598;27;46029;-62
2022/11/25 13:38:45;;;;;;;;;7.00;2.75;;;;;;;;5119188;27;45346;-62
2022/11/25 13:41:10;;;;;;;;;5.00;3.50;;;;;;;;5096394;27;45514;-62
2022/11/25 13:43:50;;;;;;;;;9.75;6.00;;;;;;;;5096119;27;45507;-62
2022/11/25 13:46:27;;;;;;;;;5.00;3.00;;;;;;;;5095381;27;45396;-62
2022/11/25 13:48:52;;;;;;;;;4.50;2.50;;;;;;;;5095391;27;46485;-62
2022/11/25 13:51:19;;;;;;;;;6.50;3.00;;;;;;;;5094936;27;45476;-62
2022/11/25 13:53:53;;;;;;;;;6.25;1.50;;;;;;;;5095107;27;45369;-62
2022/11/25 13:56:29;;;;;;;;;6.00;3.00;;;;;;;;5058303;28;45358;-63
2022/11/25 13:59:17;;;;;;;;;9.00;5.00;;;;;;;;5075318;28;45541;-64
2022/11/25 14:01:45;;;;;;;;;4.50;2.00;;;;;;;;5075379;28;45835;-63
2022/11/25 14:04:14;;;;;;;;;5.00;3.00;;;;;;;;5082171;27;45607;-63
2022/11/25 14:06:51;;;;;;;;;7.25;3.50;;;;;;;;5095412;27;45689;-63
2022/11/25 14:09:31;;;;;;;;;3.00;1.75;;;;;;;;5093611;27;47118;-63
2022/11/25 14:12:12;;;;;;;;;9.00;8.00;;;;;;;;5085534;27;45514;-63
2022/11/25 14:14:49;;;;;;;;;5.00;4.00;;;;;;;;5094925;27;45538;-63
2022/11/25 14:17:22;;;;;;;;;3.25;3.00;;;;;;;;5088208;27;45482;-63
2022/11/25 14:20:06;;;;;;;;;2.75;2.00;;;;;;;;5109633;27;45750;-63
2022/11/25 14:22:47;;;;;;;;;6.00;3.00;;;;;;;;5107417;27;45366;-63
2022/11/25 14:25:14;;;;;;;;;26.67;23.00;;;;;;;;5118661;27;45503;-63
2022/11/25 14:27:44;;;;;;;;;4.50;1.25;;;;;;;;5117080;27;45539;-63
2022/11/25 14:30:10;;;;;;;;;5.25;4.00;;;;;;;;5102124;27;47374;-62
2022/11/25 14:32:35;;;;;;;;;11.75;7.25;;;;;;;;5110449;27;45649;-62
2022/11/25 14:35:07;;;;;;;;;5.50;3.50;;;;;;;;5120661;27;45513;-62
2022/11/25 14:37:38;;;;;;;;;6.25;3.00;;;;;;;;5117428;27;45682;-62
2022/11/25 14:40:09;;;;;;;;;6.25;4.75;;;;;;;;5100778;27;46651;-62
2022/11/25 14:42:36;;;;;;;;;7.50;7.00;;;;;;;;5099458;27;45440;-62
2022/11/25 14:45:02;;;;;;;;;8.50;4.00;;;;;;;;5097747;27;45397;-61
2022/11/25 14:47:29;;;;;;;;;8.75;4.25;;;;;;;;5098282;27;45514;-62
2022/11/25 14:49:56;;;;;;;;;7.00;4.50;;;;;;;;5097808;27;45884;-62
2022/11/25 14:52:26;;;;;;;;;6.25;4.00;;;;;;;;5097517;27;45414;-61
2022/11/25 14:54:53;;;;;;;;;3.00;3.00;;;;;;;;5100126;27;46278;-62